sensor_id;sensor_type;location;lat;lon;timestamp;P1;durP1;ratioP1;P2;durP2;ratioP2
12451;SDS011;6291;48.924;12.204;2023-03-02T00:00:32;12.07;;;7.27;;
12451;SDS011;6291;48.924;12.204;2023-03-02T00:05:36;25.80;;;15.75;;
12451;SDS011;6291;48.924;12.204;2023-03-02T00:10:41;18.07;;;8.27;;
12451;SDS011;6291;48.924;12.204;2023-03-02T00:15:46;14.33;;;7.80;;
12451;SDS011;6291;48.924;12.204;2023-03-02T00:20:49;11.97;;;6.43;;
12451;SDS011;6291;48.924;12.204;2023-03-02T00:25:53;12.53;;;6.80;;
12451;SDS011;6291;48.924;12.204;2023-03-02T00:30:57;9.80;;;6.63;;
12451;SDS011;6291;48.924;12.204;2023-03-02T00:36:01;11.50;;;5.87;;
12451;SDS011;6291;48.924;12.204;2023-03-02T00:41:05;11.90;;;6.67;;
12451;SDS011;6291;48.924;12.204;2023-03-02T00:46:10;11.53;;;6.63;;
12451;SDS011;6291;48.924;12.204;2023-03-02T00:51:15;11.43;;;6.13;;
12451;SDS011;6291;48.924;12.204;2023-03-02T00:56:19;14.77;;;6.80;;
12451;SDS011;6291;48.924;12.204;2023-03-02T01:01:26;16.70;;;7.53;;
12451;SDS011;6291;48.924;12.204;2023-03-02T01:06:30;14.67;;;6.87;;
12451;SDS011;6291;48.924;12.204;2023-03-02T01:11:36;14.73;;;7.77;;
12451;SDS011;6291;48.924;12.204;2023-03-02T01:16:42;13.97;;;7.53;;
12451;SDS011;6291;48.924;12.204;2023-03-02T01:21:46;13.80;;;7.17;;
12451;SDS011;6291;48.924;12.204;2023-03-02T01:26:49;15.50;;;7.90;;
12451;SDS011;6291;48.924;12.204;2023-03-02T01:31:54;12.50;;;6.93;;
12451;SDS011;6291;48.924;12.204;2023-03-02T01:36:57;15.40;;;8.33;;
12451;SDS011;6291;48.924;12.204;2023-03-02T01:42:01;17.20;;;7.67;;
12451;SDS011;6291;48.924;12.204;2023-03-02T01:47:08;13.47;;;7.43;;
12451;SDS011;6291;48.924;12.204;2023-03-02T01:52:23;14.50;;;6.80;;
12451;SDS011;6291;48.924;12.204;2023-03-02T01:57:28;16.70;;;5.83;;
12451;SDS011;6291;48.924;12.204;2023-03-02T02:02:37;8.17;;;5.87;;
12451;SDS011;6291;48.924;12.204;2023-03-02T02:07:42;12.63;;;6.23;;
12451;SDS011;6291;48.924;12.204;2023-03-02T02:12:46;12.97;;;6.60;;
12451;SDS011;6291;48.924;12.204;2023-03-02T02:17:51;10.60;;;6.37;;
12451;SDS011;6291;48.924;12.204;2023-03-02T02:22:56;12.40;;;6.77;;
12451;SDS011;6291;48.924;12.204;2023-03-02T02:28:10;12.70;;;6.20;;
12451;SDS011;6291;48.924;12.204;2023-03-02T02:33:19;11.97;;;6.50;;
12451;SDS011;6291;48.924;12.204;2023-03-02T02:38:25;12.63;;;6.40;;
12451;SDS011;6291;48.924;12.204;2023-03-02T02:43:31;15.87;;;7.33;;
12451;SDS011;6291;48.924;12.204;2023-03-02T02:48:35;12.03;;;6.90;;
12451;SDS011;6291;48.924;12.204;2023-03-02T02:53:40;15.03;;;7.20;;
12451;SDS011;6291;48.924;12.204;2023-03-02T02:58:48;17.57;;;7.40;;
12451;SDS011;6291;48.924;12.204;2023-03-02T03:03:55;12.50;;;7.27;;
12451;SDS011;6291;48.924;12.204;2023-03-02T03:09:00;12.90;;;6.97;;
12451;SDS011;6291;48.924;12.204;2023-03-02T03:14:12;13.23;;;7.40;;
12451;SDS011;6291;48.924;12.204;2023-03-02T03:19:20;14.80;;;7.97;;
12451;SDS011;6291;48.924;12.204;2023-03-02T03:24:26;15.70;;;8.13;;
12451;SDS011;6291;48.924;12.204;2023-03-02T03:29:34;16.10;;;7.83;;
12451;SDS011;6291;48.924;12.204;2023-03-02T03:34:41;17.90;;;8.60;;
12451;SDS011;6291;48.924;12.204;2023-03-02T03:40:14;11.10;;;6.83;;
12451;SDS011;6291;48.924;12.204;2023-03-02T03:45:20;14.83;;;6.50;;
12451;SDS011;6291;48.924;12.204;2023-03-02T03:50:24;14.20;;;6.83;;
12451;SDS011;6291;48.924;12.204;2023-03-02T03:55:27;15.10;;;7.17;;
12451;SDS011;6291;48.924;12.204;2023-03-02T04:00:32;13.20;;;6.93;;
12451;SDS011;6291;48.924;12.204;2023-03-02T04:05:41;14.57;;;6.40;;
12451;SDS011;6291;48.924;12.204;2023-03-02T04:10:45;13.63;;;6.77;;
12451;SDS011;6291;48.924;12.204;2023-03-02T04:15:50;13.90;;;7.80;;
12451;SDS011;6291;48.924;12.204;2023-03-02T04:20:53;16.17;;;7.33;;
12451;SDS011;6291;48.924;12.204;2023-03-02T04:25:56;13.00;;;7.63;;
12451;SDS011;6291;48.924;12.204;2023-03-02T04:31:03;16.80;;;8.00;;
12451;SDS011;6291;48.924;12.204;2023-03-02T04:36:07;11.87;;;6.93;;
12451;SDS011;6291;48.924;12.204;2023-03-02T04:41:11;15.47;;;7.97;;
12451;SDS011;6291;48.924;12.204;2023-03-02T04:46:17;15.50;;;7.17;;
12451;SDS011;6291;48.924;12.204;2023-03-02T04:51:26;16.40;;;7.70;;
12451;SDS011;6291;48.924;12.204;2023-03-02T04:56:31;28.90;;;18.33;;
12451;SDS011;6291;48.924;12.204;2023-03-02T05:01:37;32.20;;;19.00;;
12451;SDS011;6291;48.924;12.204;2023-03-02T05:06:41;19.60;;;10.33;;
12451;SDS011;6291;48.924;12.204;2023-03-02T05:11:45;27.27;;;17.38;;
12451;SDS011;6291;48.924;12.204;2023-03-02T05:16:49;14.33;;;8.73;;
12451;SDS011;6291;48.924;12.204;2023-03-02T05:21:53;20.27;;;9.70;;
12451;SDS011;6291;48.924;12.204;2023-03-02T05:26:56;13.93;;;7.90;;
12451;SDS011;6291;48.924;12.204;2023-03-02T05:32:01;31.43;;;19.70;;
12451;SDS011;6291;48.924;12.204;2023-03-02T05:37:05;35.70;;;21.10;;
12451;SDS011;6291;48.924;12.204;2023-03-02T05:42:08;25.73;;;14.20;;
12451;SDS011;6291;48.924;12.204;2023-03-02T05:47:13;18.63;;;8.80;;
12451;SDS011;6291;48.924;12.204;2023-03-02T05:52:16;25.27;;;11.07;;
12451;SDS011;6291;48.924;12.204;2023-03-02T05:57:20;19.70;;;10.07;;
12451;SDS011;6291;48.924;12.204;2023-03-02T06:02:24;16.17;;;8.83;;
12451;SDS011;6291;48.924;12.204;2023-03-02T06:07:28;21.17;;;10.97;;
12451;SDS011;6291;48.924;12.204;2023-03-02T06:12:31;17.17;;;10.00;;
12451;SDS011;6291;48.924;12.204;2023-03-02T06:17:36;21.93;;;11.67;;
12451;SDS011;6291;48.924;12.204;2023-03-02T06:22:40;17.20;;;9.20;;
12451;SDS011;6291;48.924;12.204;2023-03-02T06:27:46;18.93;;;10.03;;
12451;SDS011;6291;48.924;12.204;2023-03-02T06:32:53;17.73;;;10.10;;
12451;SDS011;6291;48.924;12.204;2023-03-02T06:37:57;23.77;;;10.03;;
12451;SDS011;6291;48.924;12.204;2023-03-02T06:43:00;23.70;;;12.27;;
12451;SDS011;6291;48.924;12.204;2023-03-02T06:48:06;17.93;;;10.97;;
12451;SDS011;6291;48.924;12.204;2023-03-02T06:53:09;30.55;;;18.63;;
12451;SDS011;6291;48.924;12.204;2023-03-02T06:58:13;26.13;;;12.70;;
12451;SDS011;6291;48.924;12.204;2023-03-02T07:03:17;21.73;;;11.63;;
12451;SDS011;6291;48.924;12.204;2023-03-02T07:08:21;23.03;;;11.93;;
12451;SDS011;6291;48.924;12.204;2023-03-02T07:13:24;27.37;;;18.20;;
12451;SDS011;6291;48.924;12.204;2023-03-02T07:18:29;20.07;;;11.40;;
12451;SDS011;6291;48.924;12.204;2023-03-02T07:23:32;22.40;;;11.63;;
12451;SDS011;6291;48.924;12.204;2023-03-02T07:28:36;22.73;;;12.10;;
12451;SDS011;6291;48.924;12.204;2023-03-02T07:33:43;20.00;;;10.70;;
12451;SDS011;6291;48.924;12.204;2023-03-02T07:38:46;23.40;;;11.20;;
12451;SDS011;6291;48.924;12.204;2023-03-02T07:43:50;21.47;;;11.07;;
12451;SDS011;6291;48.924;12.204;2023-03-02T07:48:54;18.95;;;11.80;;
12451;SDS011;6291;48.924;12.204;2023-03-02T07:53:59;19.27;;;11.63;;
12451;SDS011;6291;48.924;12.204;2023-03-02T07:59:03;18.65;;;10.60;;
12451;SDS011;6291;48.924;12.204;2023-03-02T08:04:08;16.55;;;10.20;;
12451;SDS011;6291;48.924;12.204;2023-03-02T08:09:11;14.80;;;9.85;;
12451;SDS011;6291;48.924;12.204;2023-03-02T08:14:17;16.67;;;10.80;;
12451;SDS011;6291;48.924;12.204;2023-03-02T08:19:21;14.07;;;10.18;;
12451;SDS011;6291;48.924;12.204;2023-03-02T08:24:26;16.02;;;11.38;;
12451;SDS011;6291;48.924;12.204;2023-03-02T08:29:30;15.68;;;10.75;;
12451;SDS011;6291;48.924;12.204;2023-03-02T08:34:34;15.80;;;11.15;;
12451;SDS011;6291;48.924;12.204;2023-03-02T08:39:38;16.50;;;10.75;;
12451;SDS011;6291;48.924;12.204;2023-03-02T08:44:41;12.40;;;9.85;;
12451;SDS011;6291;48.924;12.204;2023-03-02T08:49:46;14.43;;;10.30;;
12451;SDS011;6291;48.924;12.204;2023-03-02T08:54:50;17.58;;;10.38;;
12451;SDS011;6291;48.924;12.204;2023-03-02T08:59:53;14.75;;;10.60;;
12451;SDS011;6291;48.924;12.204;2023-03-02T09:04:58;13.57;;;10.25;;
12451;SDS011;6291;48.924;12.204;2023-03-02T09:10:01;14.18;;;9.80;;
12451;SDS011;6291;48.924;12.204;2023-03-02T09:15:05;15.52;;;11.95;;
12451;SDS011;6291;48.924;12.204;2023-03-02T09:20:10;13.90;;;10.52;;
12451;SDS011;6291;48.924;12.204;2023-03-02T09:35:22;13.57;;;9.55;;
12451;SDS011;6291;48.924;12.204;2023-03-02T09:40:26;13.73;;;8.30;;
12451;SDS011;6291;48.924;12.204;2023-03-02T09:45:36;11.52;;;8.48;;
12451;SDS011;6291;48.924;12.204;2023-03-02T09:50:53;13.82;;;9.45;;
12451;SDS011;6291;48.924;12.204;2023-03-02T09:56:02;11.93;;;7.75;;
12451;SDS011;6291;48.924;12.204;2023-03-02T10:01:12;13.52;;;7.85;;
12451;SDS011;6291;48.924;12.204;2023-03-02T10:11:25;10.93;;;6.80;;
12451;SDS011;6291;48.924;12.204;2023-03-02T10:16:36;10.80;;;6.75;;
12451;SDS011;6291;48.924;12.204;2023-03-02T10:21:48;14.60;;;6.57;;
12451;SDS011;6291;48.924;12.204;2023-03-02T10:26:57;11.63;;;7.15;;
12451;SDS011;6291;48.924;12.204;2023-03-02T10:32:06;15.55;;;9.40;;
12451;SDS011;6291;48.924;12.204;2023-03-02T10:37:22;11.77;;;7.32;;
12451;SDS011;6291;48.924;12.204;2023-03-02T10:42:27;13.38;;;7.18;;
12451;SDS011;6291;48.924;12.204;2023-03-02T10:47:33;11.70;;;7.40;;
12451;SDS011;6291;48.924;12.204;2023-03-02T10:52:47;11.80;;;6.88;;
12451;SDS011;6291;48.924;12.204;2023-03-02T10:58:02;9.13;;;5.25;;
12451;SDS011;6291;48.924;12.204;2023-03-02T11:03:18;12.18;;;6.43;;
12451;SDS011;6291;48.924;12.204;2023-03-02T11:08:25;11.25;;;5.40;;
12451;SDS011;6291;48.924;12.204;2023-03-02T11:13:30;8.68;;;3.95;;
12451;SDS011;6291;48.924;12.204;2023-03-02T11:18:36;14.98;;;5.68;;
12451;SDS011;6291;48.924;12.204;2023-03-02T11:23:47;11.07;;;5.55;;
12451;SDS011;6291;48.924;12.204;2023-03-02T11:28:59;10.38;;;4.97;;
12451;SDS011;6291;48.924;12.204;2023-03-02T11:34:07;11.30;;;4.75;;
12451;SDS011;6291;48.924;12.204;2023-03-02T11:44:26;7.63;;;4.60;;
12451;SDS011;6291;48.924;12.204;2023-03-02T11:49:34;7.80;;;4.88;;
12451;SDS011;6291;48.924;12.204;2023-03-02T11:54:43;8.05;;;4.50;;
12451;SDS011;6291;48.924;12.204;2023-03-02T11:59:48;13.10;;;5.38;;
12451;SDS011;6291;48.924;12.204;2023-03-02T12:05:00;9.63;;;5.28;;
12451;SDS011;6291;48.924;12.204;2023-03-02T12:10:19;9.32;;;4.57;;
12451;SDS011;6291;48.924;12.204;2023-03-02T12:15:34;14.18;;;6.55;;
12451;SDS011;6291;48.924;12.204;2023-03-02T12:20:40;16.17;;;7.30;;
12451;SDS011;6291;48.924;12.204;2023-03-02T12:25:45;12.23;;;8.48;;
12451;SDS011;6291;48.924;12.204;2023-03-02T12:30:55;16.35;;;8.40;;
12451;SDS011;6291;48.924;12.204;2023-03-02T12:36:04;13.57;;;8.70;;
12451;SDS011;6291;48.924;12.204;2023-03-02T12:41:19;12.02;;;8.35;;
12451;SDS011;6291;48.924;12.204;2023-03-02T12:46:36;12.43;;;7.97;;
12451;SDS011;6291;48.924;12.204;2023-03-02T12:51:43;17.08;;;9.38;;
12451;SDS011;6291;48.924;12.204;2023-03-02T12:57:01;11.77;;;8.90;;
12451;SDS011;6291;48.924;12.204;2023-03-02T13:02:13;13.75;;;8.85;;
12451;SDS011;6291;48.924;12.204;2023-03-02T13:07:19;11.40;;;7.63;;
12451;SDS011;6291;48.924;12.204;2023-03-02T13:12:28;11.30;;;8.25;;
12451;SDS011;6291;48.924;12.204;2023-03-02T13:17:31;10.38;;;7.38;;
12451;SDS011;6291;48.924;12.204;2023-03-02T13:22:34;11.80;;;8.45;;
12451;SDS011;6291;48.924;12.204;2023-03-02T13:27:39;12.13;;;8.93;;
12451;SDS011;6291;48.924;12.204;2023-03-02T13:32:55;10.43;;;8.20;;
12451;SDS011;6291;48.924;12.204;2023-03-02T13:38:03;13.73;;;8.95;;
12451;SDS011;6291;48.924;12.204;2023-03-02T13:43:20;14.25;;;9.82;;
12451;SDS011;6291;48.924;12.204;2023-03-02T13:48:51;16.55;;;10.40;;
12451;SDS011;6291;48.924;12.204;2023-03-02T13:54:15;17.35;;;11.88;;
12451;SDS011;6291;48.924;12.204;2023-03-02T13:59:23;13.80;;;9.70;;
12451;SDS011;6291;48.924;12.204;2023-03-02T14:04:27;13.15;;;9.32;;
12451;SDS011;6291;48.924;12.204;2023-03-02T14:09:30;12.48;;;9.20;;
12451;SDS011;6291;48.924;12.204;2023-03-02T14:14:36;13.73;;;9.07;;
12451;SDS011;6291;48.924;12.204;2023-03-02T14:19:41;12.82;;;9.63;;
12451;SDS011;6291;48.924;12.204;2023-03-02T14:24:44;15.18;;;8.48;;
12451;SDS011;6291;48.924;12.204;2023-03-02T14:29:49;11.60;;;8.27;;
12451;SDS011;6291;48.924;12.204;2023-03-02T14:34:52;18.42;;;10.00;;
12451;SDS011;6291;48.924;12.204;2023-03-02T14:39:56;14.50;;;9.82;;
12451;SDS011;6291;48.924;12.204;2023-03-02T14:45:01;14.13;;;9.57;;
12451;SDS011;6291;48.924;12.204;2023-03-02T14:50:04;14.25;;;8.90;;
12451;SDS011;6291;48.924;12.204;2023-03-02T14:55:11;12.48;;;9.88;;
12451;SDS011;6291;48.924;12.204;2023-03-02T15:00:20;13.65;;;10.07;;
12451;SDS011;6291;48.924;12.204;2023-03-02T15:05:23;13.60;;;9.50;;
12451;SDS011;6291;48.924;12.204;2023-03-02T15:10:27;12.98;;;9.40;;
12451;SDS011;6291;48.924;12.204;2023-03-02T15:15:32;12.07;;;8.90;;
12451;SDS011;6291;48.924;12.204;2023-03-02T15:20:35;13.95;;;9.18;;
12451;SDS011;6291;48.924;12.204;2023-03-02T15:25:38;14.40;;;8.43;;
12451;SDS011;6291;48.924;12.204;2023-03-02T15:30:44;13.25;;;7.93;;
12451;SDS011;6291;48.924;12.204;2023-03-02T15:35:49;12.20;;;9.00;;
12451;SDS011;6291;48.924;12.204;2023-03-02T15:40:56;11.77;;;8.05;;
12451;SDS011;6291;48.924;12.204;2023-03-02T15:46:00;11.95;;;8.20;;
12451;SDS011;6291;48.924;12.204;2023-03-02T15:51:04;13.00;;;8.27;;
12451;SDS011;6291;48.924;12.204;2023-03-02T15:56:10;14.75;;;7.55;;
12451;SDS011;6291;48.924;12.204;2023-03-02T16:01:17;13.80;;;8.48;;
12451;SDS011;6291;48.924;12.204;2023-03-02T16:06:21;14.77;;;8.00;;
12451;SDS011;6291;48.924;12.204;2023-03-02T16:11:24;17.52;;;8.60;;
12451;SDS011;6291;48.924;12.204;2023-03-02T16:16:29;17.83;;;12.27;;
12451;SDS011;6291;48.924;12.204;2023-03-02T16:21:32;14.30;;;8.70;;
12451;SDS011;6291;48.924;12.204;2023-03-02T16:26:36;13.38;;;8.00;;
12451;SDS011;6291;48.924;12.204;2023-03-02T16:31:43;17.60;;;8.75;;
12451;SDS011;6291;48.924;12.204;2023-03-02T16:36:48;14.57;;;8.38;;
12451;SDS011;6291;48.924;12.204;2023-03-02T16:41:51;14.23;;;7.75;;
12451;SDS011;6291;48.924;12.204;2023-03-02T16:46:56;16.90;;;7.93;;
12451;SDS011;6291;48.924;12.204;2023-03-02T16:51:59;15.70;;;8.85;;
12451;SDS011;6291;48.924;12.204;2023-03-02T16:57:03;16.00;;;8.55;;
12451;SDS011;6291;48.924;12.204;2023-03-02T17:02:08;12.30;;;7.20;;
12451;SDS011;6291;48.924;12.204;2023-03-02T17:07:11;14.77;;;8.35;;
12451;SDS011;6291;48.924;12.204;2023-03-02T17:12:15;11.43;;;6.90;;
12451;SDS011;6291;48.924;12.204;2023-03-02T17:17:19;13.98;;;8.20;;
12451;SDS011;6291;48.924;12.204;2023-03-02T17:22:24;16.27;;;8.10;;
12451;SDS011;6291;48.924;12.204;2023-03-02T17:27:27;15.55;;;8.20;;
12451;SDS011;6291;48.924;12.204;2023-03-02T17:32:31;15.05;;;7.95;;
12451;SDS011;6291;48.924;12.204;2023-03-02T17:37:35;15.93;;;8.27;;
12451;SDS011;6291;48.924;12.204;2023-03-02T17:42:39;16.85;;;8.77;;
12451;SDS011;6291;48.924;12.204;2023-03-02T17:47:44;18.15;;;8.75;;
12451;SDS011;6291;48.924;12.204;2023-03-02T17:52:47;13.38;;;8.20;;
12451;SDS011;6291;48.924;12.204;2023-03-02T17:57:50;16.90;;;9.20;;
12451;SDS011;6291;48.924;12.204;2023-03-02T18:02:55;20.45;;;11.10;;
12451;SDS011;6291;48.924;12.204;2023-03-02T18:07:59;17.55;;;10.13;;
12451;SDS011;6291;48.924;12.204;2023-03-02T18:13:04;21.25;;;12.25;;
12451;SDS011;6291;48.924;12.204;2023-03-02T18:18:10;24.90;;;11.45;;
12451;SDS011;6291;48.924;12.204;2023-03-02T18:23:13;21.27;;;10.90;;
12451;SDS011;6291;48.924;12.204;2023-03-02T18:28:17;13.65;;;8.82;;
12451;SDS011;6291;48.924;12.204;2023-03-02T18:33:21;18.70;;;10.18;;
12451;SDS011;6291;48.924;12.204;2023-03-02T18:38:25;18.95;;;9.85;;
12451;SDS011;6291;48.924;12.204;2023-03-02T18:43:31;16.55;;;9.40;;
12451;SDS011;6291;48.924;12.204;2023-03-02T18:48:40;19.60;;;12.38;;
12451;SDS011;6291;48.924;12.204;2023-03-02T18:53:43;25.17;;;11.90;;
12451;SDS011;6291;48.924;12.204;2023-03-02T18:58:47;24.70;;;12.75;;
12451;SDS011;6291;48.924;12.204;2023-03-02T19:03:53;20.00;;;12.23;;
12451;SDS011;6291;48.924;12.204;2023-03-02T19:08:58;23.85;;;13.02;;
12451;SDS011;6291;48.924;12.204;2023-03-02T19:14:01;20.77;;;11.45;;
12451;SDS011;6291;48.924;12.204;2023-03-02T19:19:06;27.67;;;11.63;;
12451;SDS011;6291;48.924;12.204;2023-03-02T19:24:09;29.05;;;12.57;;
12451;SDS011;6291;48.924;12.204;2023-03-02T19:29:12;20.92;;;10.82;;
12451;SDS011;6291;48.924;12.204;2023-03-02T19:34:17;19.08;;;10.85;;
12451;SDS011;6291;48.924;12.204;2023-03-02T19:39:20;23.63;;;11.40;;
12451;SDS011;6291;48.924;12.204;2023-03-02T19:44:24;23.93;;;10.97;;
12451;SDS011;6291;48.924;12.204;2023-03-02T19:49:28;19.48;;;9.40;;
12451;SDS011;6291;48.924;12.204;2023-03-02T19:54:31;19.70;;;10.23;;
12451;SDS011;6291;48.924;12.204;2023-03-02T19:59:35;23.43;;;10.07;;
12451;SDS011;6291;48.924;12.204;2023-03-02T20:04:41;20.87;;;10.77;;
12451;SDS011;6291;48.924;12.204;2023-03-02T20:09:47;18.40;;;11.07;;
12451;SDS011;6291;48.924;12.204;2023-03-02T20:14:52;15.80;;;9.63;;
12451;SDS011;6291;48.924;12.204;2023-03-02T20:19:59;21.67;;;10.43;;
12451;SDS011;6291;48.924;12.204;2023-03-02T20:25:04;22.37;;;10.73;;
12451;SDS011;6291;48.924;12.204;2023-03-02T20:30:11;16.07;;;9.80;;
12451;SDS011;6291;48.924;12.204;2023-03-02T20:35:19;17.50;;;9.37;;
12451;SDS011;6291;48.924;12.204;2023-03-02T20:40:23;15.30;;;8.23;;
12451;SDS011;6291;48.924;12.204;2023-03-02T20:45:28;17.43;;;10.00;;
12451;SDS011;6291;48.924;12.204;2023-03-02T20:50:34;18.53;;;9.77;;
12451;SDS011;6291;48.924;12.204;2023-03-02T20:55:39;17.10;;;9.30;;
12451;SDS011;6291;48.924;12.204;2023-03-02T21:00:42;16.60;;;8.67;;
12451;SDS011;6291;48.924;12.204;2023-03-02T21:05:47;14.97;;;7.90;;
12451;SDS011;6291;48.924;12.204;2023-03-02T21:10:50;17.63;;;8.37;;
12451;SDS011;6291;48.924;12.204;2023-03-02T21:15:54;16.70;;;8.57;;
12451;SDS011;6291;48.924;12.204;2023-03-02T21:20:58;16.80;;;8.57;;
12451;SDS011;6291;48.924;12.204;2023-03-02T21:26:02;16.97;;;8.23;;
12451;SDS011;6291;48.924;12.204;2023-03-02T21:31:06;13.27;;;8.03;;
12451;SDS011;6291;48.924;12.204;2023-03-02T21:36:12;19.57;;;8.97;;
12451;SDS011;6291;48.924;12.204;2023-03-02T21:41:18;13.63;;;8.37;;
12451;SDS011;6291;48.924;12.204;2023-03-02T21:46:22;17.37;;;9.13;;
12451;SDS011;6291;48.924;12.204;2023-03-02T21:51:27;19.30;;;9.30;;
12451;SDS011;6291;48.924;12.204;2023-03-02T21:56:31;14.20;;;9.10;;
12451;SDS011;6291;48.924;12.204;2023-03-02T22:01:36;17.60;;;9.03;;
12451;SDS011;6291;48.924;12.204;2023-03-02T22:06:41;18.33;;;10.60;;
12451;SDS011;6291;48.924;12.204;2023-03-02T22:11:44;18.77;;;10.67;;
12451;SDS011;6291;48.924;12.204;2023-03-02T22:16:49;17.53;;;9.47;;
12451;SDS011;6291;48.924;12.204;2023-03-02T22:21:55;18.13;;;9.03;;
12451;SDS011;6291;48.924;12.204;2023-03-02T22:27:01;16.53;;;10.20;;
12451;SDS011;6291;48.924;12.204;2023-03-02T22:32:20;20.60;;;9.93;;
12451;SDS011;6291;48.924;12.204;2023-03-02T22:37:28;18.80;;;10.53;;
12451;SDS011;6291;48.924;12.204;2023-03-02T22:42:34;23.97;;;11.77;;
12451;SDS011;6291;48.924;12.204;2023-03-02T22:47:38;22.17;;;11.73;;
12451;SDS011;6291;48.924;12.204;2023-03-02T22:52:44;19.70;;;11.80;;
12451;SDS011;6291;48.924;12.204;2023-03-02T22:57:47;26.27;;;12.73;;
12451;SDS011;6291;48.924;12.204;2023-03-02T23:02:50;25.63;;;13.03;;
12451;SDS011;6291;48.924;12.204;2023-03-02T23:07:57;24.10;;;11.57;;
12451;SDS011;6291;48.924;12.204;2023-03-02T23:13:08;20.37;;;11.80;;
12451;SDS011;6291;48.924;12.204;2023-03-02T23:18:14;25.10;;;13.20;;
12451;SDS011;6291;48.924;12.204;2023-03-02T23:23:23;22.07;;;11.00;;
12451;SDS011;6291;48.924;12.204;2023-03-02T23:28:28;21.03;;;11.13;;
12451;SDS011;6291;48.924;12.204;2023-03-02T23:33:32;22.33;;;11.40;;
12451;SDS011;6291;48.924;12.204;2023-03-02T23:38:37;26.17;;;13.60;;
12451;SDS011;6291;48.924;12.204;2023-03-02T23:43:41;19.17;;;11.37;;
12451;SDS011;6291;48.924;12.204;2023-03-02T23:48:44;22.63;;;11.40;;
12451;SDS011;6291;48.924;12.204;2023-03-02T23:53:49;23.47;;;12.03;;
12451;SDS011;6291;48.924;12.204;2023-03-02T23:58:52;22.53;;;12.53;;
